Time;durP1;ratioP1;P1;durP2;ratioP2;P2;SDS_P1;SDS_P2;PMS_P1;PMS_P2;Temp;Humidity;BMP_temperature;BMP_pressure;BME280_temperature;BME280_humidity;BME280_pressure;Samples;Min_cycle;Max_cycle;Signal;HPM_P1;HPM_P2
2021/12/19 00:04:33;;;;;;;13.90;7.15;;;7.80;99.90;;;;;;4997602;28;20046;-63
2021/12/19 00:09:43;;;;;;;18.50;9.00;;;7.70;99.90;;;;;;4996068;28;20567;-63
2021/12/19 00:12:09;;;;;;;18.40;8.77;;;7.70;99.90;;;;;;4996868;28;20088;-63
2021/12/19 00:14:34;;;;;;;16.13;8.70;;;7.70;99.90;;;;;;4995898;28;20039;-63
2021/12/19 00:17:00;;;;;;;19.95;8.45;;;;;;;;;;4978768;28;20466;-63
2021/12/19 00:19:26;;;;;;;17.15;7.57;;;7.70;99.90;;;;;;4994952;28;20050;-63
2021/12/19 00:21:52;;;;;;;12.73;7.72;;;7.70;99.90;;;;;;4994578;28;20070;-63
2021/12/19 00:24:18;;;;;;;13.70;8.02;;;;;;;;;;4994450;28;20091;-63
2021/12/19 00:26:44;;;;;;;16.92;8.10;;;7.80;99.90;;;;;;4995262;28;20483;-63
2021/12/19 00:29:10;;;;;;;13.27;7.75;;;;;;;;;;4995471;28;20046;-63
2021/12/19 00:31:37;;;;;;;14.60;7.47;;;7.60;99.90;;;;;;4995785;28;20046;-63
2021/12/19 00:34:03;;;;;;;14.70;7.05;;;7.70;99.90;;;;;;4997609;28;20051;-63
2021/12/19 00:36:29;;;;;;;17.50;7.50;;;7.90;99.90;;;;;;5000631;28;20057;-63
2021/12/19 00:38:55;;;;;;;17.35;8.18;;;7.80;99.90;;;;;;4998858;28;20046;-63
2021/12/19 00:41:21;;;;;;;20.92;8.57;;;7.80;99.90;;;;;;5015693;28;20042;-63
2021/12/19 00:43:54;;;;;;;15.30;8.18;;;7.60;99.90;;;;;;5001036;28;20058;-63
2021/12/19 00:46:22;;;;;;;20.98;9.00;;;7.80;99.90;;;;;;4999759;28;20076;-64
2021/12/19 00:48:50;;;;;;;15.73;7.30;;;7.70;99.90;;;;;;5016966;28;20042;-65
2021/12/19 00:51:19;;;;;;;11.50;6.32;;;8.00;99.90;;;;;;5000484;28;20043;-65
2021/12/19 00:53:46;;;;;;;12.85;6.45;;;;;;;;;;5000337;28;20547;-65
2021/12/19 00:56:12;;;;;;;14.98;6.90;;;7.80;99.90;;;;;;5000058;28;20101;-65
2021/12/19 00:58:38;;;;;;;11.50;5.85;;;7.80;99.90;;;;;;5000908;28;20042;-65
2021/12/19 01:01:06;;;;;;;9.40;5.18;;;7.90;99.90;;;;;;5000251;28;20053;-65
2021/12/19 01:03:32;;;;;;;10.40;4.82;;;7.80;99.90;;;;;;5000862;28;20089;-66
2021/12/19 01:05:59;;;;;;;6.80;3.85;;;;;;;;;;5001687;28;20523;-65
2021/12/19 01:08:25;;;;;;;8.45;4.57;;;;;;;;;;4999899;28;20393;-66
2021/12/19 01:10:50;;;;;;;4.60;2.92;;;7.70;99.90;;;;;;5000315;28;20050;-65
2021/12/19 01:13:17;;;;;;;4.70;2.60;;;7.80;99.90;;;;;;5000343;28;20050;-65
2021/12/19 01:15:43;;;;;;;6.25;3.22;;;7.80;99.90;;;;;;5001843;28;20042;-66
2021/12/19 01:18:09;;;;;;;4.95;2.58;;;7.80;99.90;;;;;;5015821;28;20373;-66
2021/12/19 01:20:38;;;;;;;5.45;2.65;;;7.80;99.90;;;;;;4999202;28;20069;-65
2021/12/19 01:23:05;;;;;;;5.50;2.00;;;7.70;99.90;;;;;;5000462;28;20065;-65
2021/12/19 01:25:31;;;;;;;2.88;2.40;;;7.70;99.90;;;;;;4993240;28;20041;-65
2021/12/19 01:27:57;;;;;;;3.55;2.00;;;;;;;;;;4999814;28;20066;-66
2021/12/19 01:30:23;;;;;;;4.50;2.92;;;7.90;99.90;;;;;;5000623;28;20034;-66
2021/12/19 01:32:49;;;;;;;4.70;2.35;;;7.80;99.90;;;;;;5001405;28;20530;-65
2021/12/19 01:35:17;;;;;;;4.93;3.17;;;7.50;99.90;;;;;;5000536;28;20046;-65
2021/12/19 01:37:43;;;;;;;5.65;2.83;;;7.70;99.90;;;;;;5000036;28;20058;-66
2021/12/19 01:40:11;;;;;;;7.43;3.50;;;7.70;99.90;;;;;;4999725;28;20135;-65
2021/12/19 01:42:40;;;;;;;6.63;3.28;;;7.60;99.90;;;;;;4983020;28;20035;-65
2021/12/19 01:45:08;;;;;;;4.85;2.25;;;7.70;99.90;;;;;;4999897;28;20093;-66
2021/12/19 01:47:35;;;;;;;4.80;2.17;;;;;;;;;;5000948;28;20043;-65
2021/12/19 01:50:01;;;;;;;3.42;2.13;;;;;;;;;;5000087;28;20488;-66
2021/12/19 01:52:28;;;;;;;3.17;2.30;;;7.90;99.90;;;;;;4999914;28;20050;-66
2021/12/19 01:54:56;;;;;;;2.75;1.65;;;7.70;99.90;;;;;;4999490;28;20050;-65
2021/12/19 01:57:24;;;;;;;2.67;1.65;;;7.70;99.90;;;;;;5015991;28;20057;-66
2021/12/19 01:59:49;;;;;;;4.70;2.40;;;7.50;99.90;;;;;;4999824;28;20431;-66
2021/12/19 02:02:15;;;;;;;3.92;2.33;;;7.60;99.90;;;;;;5000008;28;20039;-65
2021/12/19 02:04:43;;;;;;;2.70;2.20;;;7.60;99.90;;;;;;4999883;28;20106;-65
2021/12/19 02:07:09;;;;;;;2.90;1.73;;;7.90;99.90;;;;;;4998343;28;20039;-65
2021/12/19 02:09:35;;;;;;;5.18;2.33;;;7.60;99.90;;;;;;4997482;28;20145;-65
2021/12/19 02:12:03;;;;;;;3.80;2.47;;;7.70;99.90;;;;;;4999541;28;20058;-66
2021/12/19 02:14:29;;;;;;;2.30;1.58;;;7.70;99.90;;;;;;4997620;28;20046;-66
2021/12/19 02:16:55;;;;;;;5.18;1.50;;;7.60;99.90;;;;;;4997889;28;20046;-65
2021/12/19 02:19:21;;;;;;;2.90;1.42;;;7.70;99.90;;;;;;5000190;28;20499;-65
2021/12/19 02:21:47;;;;;;;3.67;1.48;;;7.50;99.90;;;;;;4999825;28;20622;-65
2021/12/19 02:24:13;;;;;;;2.70;1.30;;;7.70;99.90;;;;;;4998013;28;20158;-66
2021/12/19 02:26:39;;;;;;;2.92;1.40;;;7.80;99.90;;;;;;4999314;28;20031;-66
2021/12/19 02:29:06;;;;;;;2.33;1.30;;;7.80;99.90;;;;;;4999054;28;20464;-66
2021/12/19 02:31:31;;;;;;;3.45;1.70;;;7.60;99.90;;;;;;4998778;28;20077;-66
2021/12/19 02:34:09;;;;;;;3.53;1.88;;;7.80;99.90;;;;;;4998591;28;20066;-66
2021/12/19 02:50:00;;;;;;;2.30;1.50;;;7.60;99.90;;;;;;4997473;28;20046;-65
2021/12/19 02:52:26;;;;;;;2.60;1.70;;;7.60;99.90;;;;;;4998931;28;20046;-65
2021/12/19 02:54:52;;;;;;;1.38;1.08;;;7.50;99.90;;;;;;4998482;28;20046;-66
2021/12/19 02:57:17;;;;;;;1.48;1.23;;;7.50;99.90;;;;;;4997911;28;20526;-65
2021/12/19 02:59:43;;;;;;;1.70;1.20;;;7.60;99.90;;;;;;4998385;28;20046;-66
2021/12/19 03:02:09;;;;;;;2.13;1.13;;;7.60;99.90;;;;;;4998058;28;20043;-65
2021/12/19 03:04:34;;;;;;;1.30;1.13;;;7.70;99.90;;;;;;4999036;28;20042;-65
2021/12/19 03:07:00;;;;;;;1.38;1.00;;;7.40;99.90;;;;;;4998189;28;20092;-65
2021/12/19 03:09:55;;;;;;;1.23;0.77;;;7.40;99.90;;;;;;4997736;28;20088;-66
2021/12/19 03:12:32;;;;;;;2.00;1.50;;;7.50;99.90;;;;;;4996474;28;20534;-65
2021/12/19 03:18:00;;;;;;;4.47;1.58;;;7.50;99.90;;;;;;4996273;28;20050;-66
2021/12/19 03:20:27;;;;;;;2.88;1.63;;;7.30;99.90;;;;;;4996871;28;20050;-66
2021/12/19 03:22:53;;;;;;;4.30;1.70;;;7.30;99.90;;;;;;4995793;28;20408;-66
2021/12/19 03:25:19;;;;;;;2.83;1.88;;;7.40;99.90;;;;;;4997080;28;20034;-66
2021/12/19 03:27:45;;;;;;;2.55;1.52;;;7.40;99.90;;;;;;4997450;28;20097;-66
2021/12/19 03:30:11;;;;;;;2.35;1.50;;;7.40;99.90;;;;;;4999415;28;20045;-66
2021/12/19 03:32:37;;;;;;;2.75;1.63;;;;;;;;;;4998560;28;20062;-65
2021/12/19 03:35:05;;;;;;;4.03;1.70;;;7.40;99.90;;;;;;4997525;28;20049;-65
2021/12/19 03:37:31;;;;;;;3.40;1.88;;;7.30;99.90;;;;;;4997641;28;20474;-66
2021/12/19 03:40:07;;;;;;;4.50;2.30;;;7.40;99.90;;;;;;4996409;28;20081;-65
2021/12/19 03:42:35;;;;;;;5.25;2.80;;;7.40;99.90;;;;;;4997481;28;20054;-66
2021/12/19 03:45:01;;;;;;;4.03;2.83;;;;;;;;;;4997885;28;20050;-66
2021/12/19 03:47:28;;;;;;;9.15;3.20;;;7.40;99.90;;;;;;4996331;28;20096;-65
2021/12/19 03:49:53;;;;;;;5.32;3.03;;;7.50;99.90;;;;;;4996761;28;20381;-65
2021/12/19 03:52:19;;;;;;;7.15;3.10;;;7.20;99.90;;;;;;4997284;28;20064;-65
2021/12/19 03:54:45;;;;;;;4.15;3.05;;;7.50;99.90;;;;;;4996038;28;20066;-66
2021/12/19 03:57:10;;;;;;;6.43;2.80;;;7.40;99.90;;;;;;4980141;28;20044;-65
2021/12/19 03:59:37;;;;;;;3.40;2.50;;;;;;;;;;4997423;28;20042;-65
2021/12/19 04:02:03;;;;;;;2.80;2.03;;;7.30;99.90;;;;;;4997242;28;20050;-65
2021/12/19 04:04:35;;;;;;;2.28;1.40;;;7.30;99.90;;;;;;4997584;28;20125;-65
2021/12/19 04:07:00;;;;;;;5.43;2.58;;;7.40;99.90;;;;;;4996072;28;20038;-66
2021/12/19 04:09:26;;;;;;;3.33;1.80;;;7.40;99.90;;;;;;4996452;28;20041;-65
2021/12/19 04:11:55;;;;;;;2.17;1.83;;;7.40;99.90;;;;;;4996265;28;20125;-66
2021/12/19 04:14:20;;;;;;;1.65;1.25;;;7.50;99.90;;;;;;4996385;28;20047;-65
2021/12/19 04:16:46;;;;;;;2.80;1.10;;;7.30;99.90;;;;;;4997357;28;20042;-65
2021/12/19 04:19:11;;;;;;;1.95;1.23;;;7.30;99.90;;;;;;5012642;28;20034;-65
2021/12/19 04:21:38;;;;;;;3.00;1.20;;;7.20;99.90;;;;;;5012233;28;20519;-65
2021/12/19 04:24:04;;;;;;;2.33;1.10;;;7.20;99.90;;;;;;4980540;28;20038;-65
2021/12/19 04:26:29;;;;;;;1.40;1.20;;;7.20;99.90;;;;;;4995884;28;20046;-65
2021/12/19 04:28:55;;;;;;;2.85;1.02;;;7.20;99.90;;;;;;4996447;28;20042;-66
2021/12/19 04:31:22;;;;;;;1.00;0.90;;;7.20;99.90;;;;;;4995547;28;20047;-64
2021/12/19 04:33:48;;;;;;;4.05;1.50;;;7.20;99.90;;;;;;4996228;28;20408;-64
2021/12/19 04:36:22;;;;;;;2.88;1.23;;;7.30;99.90;;;;;;4978182;28;20078;-64
2021/12/19 04:41:50;;;;;;;2.08;1.20;;;7.20;99.90;;;;;;4994776;28;20055;-64
2021/12/19 04:44:35;;;;;;;3.72;1.50;;;7.00;99.90;;;;;;4995174;28;20423;-64
2021/12/19 04:58:15;;;;;;;2.80;1.13;;;;;;;;;;4994743;28;20069;-64
2021/12/19 05:01:04;;;;;;;4.15;1.67;;;7.20;99.90;;;;;;5011851;28;20503;-64
2021/12/19 05:03:41;;;;;;;;;;;7.30;99.90;;;;;;4993451;28;20043;-65
2021/12/19 05:14:11;;;;;;;2.85;1.23;;;7.20;99.90;;;;;;4992177;28;20058;-64
2021/12/19 05:16:40;;;;;;;5.20;1.42;;;7.20;99.90;;;;;;4993335;28;20054;-65
2021/12/19 05:19:26;;;;;;;3.70;1.38;;;7.10;99.90;;;;;;4994379;28;20053;-64
2021/12/19 05:21:56;;;;;;;4.75;2.03;;;7.20;99.90;;;;;;4996712;28;20492;-64
2021/12/19 05:27:07;;;;;;;6.28;2.30;;;7.20;99.90;;;;;;4996666;28;20121;-65
2021/12/19 05:29:34;;;;;;;6.32;2.38;;;7.40;99.90;;;;;;4992808;28;20043;-64
2021/12/19 05:32:00;;;;;;;9.65;2.67;;;7.30;99.90;;;;;;4995035;28;20041;-64
2021/12/19 05:34:27;;;;;;;7.35;3.10;;;7.20;99.90;;;;;;4996188;28;20047;-64
2021/12/19 05:45:19;;;;;;;8.57;3.05;;;7.30;99.90;;;;;;4994917;28;20504;-64
2021/12/19 05:47:47;;;;;;;11.98;3.10;;;7.30;99.90;;;;;;4995048;28;20046;-64
2021/12/19 05:50:14;;;;;;;11.60;3.33;;;;;;;;;;4995092;28;20042;-64
2021/12/19 05:52:42;;;;;;;12.07;4.22;;;7.30;99.90;;;;;;4995037;28;20052;-64
2021/12/19 05:55:08;;;;;;;11.18;4.07;;;7.20;99.90;;;;;;4995048;28;20522;-64
2021/12/19 05:57:34;;;;;;;11.52;4.13;;;7.30;99.90;;;;;;4993765;28;20038;-64
2021/12/19 06:00:00;;;;;;;9.75;4.18;;;7.40;99.90;;;;;;4994816;28;20054;-65
2021/12/19 06:02:26;;;;;;;15.27;5.55;;;7.20;99.90;;;;;;4994353;28;20042;-64
2021/12/19 06:04:52;;;;;;;13.38;4.43;;;;;;;;;;4995055;28;20034;-65
2021/12/19 06:07:17;;;;;;;13.63;5.00;;;7.30;99.90;;;;;;4994982;28;20388;-64
2021/12/19 06:09:43;;;;;;;17.85;6.63;;;7.50;99.90;;;;;;4995040;28;20042;-64
2021/12/19 06:12:09;;;;;;;20.65;6.45;;;7.40;99.90;;;;;;4995204;28;20049;-65
2021/12/19 06:14:35;;;;;;;15.57;6.00;;;7.40;99.90;;;;;;4994230;28;20038;-64
2021/12/19 06:17:03;;;;;;;19.13;6.70;;;7.40;99.90;;;;;;4994294;28;20133;-64
2021/12/19 06:19:29;;;;;;;27.55;6.63;;;7.50;99.90;;;;;;4993101;28;20078;-64
2021/12/19 06:21:54;;;;;;;21.73;7.40;;;7.40;99.90;;;;;;4976667;28;20042;-65
2021/12/19 06:24:20;;;;;;;18.30;6.47;;;7.50;99.90;;;;;;4992893;28;20468;-64
2021/12/19 06:26:46;;;;;;;21.25;7.18;;;7.60;99.90;;;;;;4994091;28;20039;-65
2021/12/19 06:29:12;;;;;;;19.30;8.23;;;7.40;99.90;;;;;;4994310;28;20080;-64
2021/12/19 06:31:38;;;;;;;17.67;6.95;;;7.50;99.90;;;;;;4993167;28;20038;-64
2021/12/19 06:34:04;;;;;;;17.10;7.47;;;7.40;99.90;;;;;;4992939;28;20385;-64
2021/12/19 06:36:29;;;;;;;21.95;7.78;;;7.40;99.90;;;;;;4992865;28;20480;-64
2021/12/19 06:38:55;;;;;;;18.25;7.07;;;7.50;99.90;;;;;;4994096;28;20042;-65
2021/12/19 06:41:21;;;;;;;24.38;8.93;;;7.40;99.90;;;;;;4991732;28;20042;-65
2021/12/19 06:43:47;;;;;;;19.38;7.85;;;7.60;99.90;;;;;;4993617;28;20061;-64
2021/12/19 06:46:13;;;;;;;22.15;8.85;;;7.50;99.90;;;;;;4992213;28;20408;-64
2021/12/19 06:48:38;;;;;;;21.70;7.82;;;7.50;99.90;;;;;;4994217;28;20054;-64
2021/12/19 06:51:04;;;;;;;20.45;8.63;;;;;;;;;;4994041;28;20046;-64
2021/12/19 06:53:30;;;;;;;24.08;7.97;;;;;;;;;;4992243;28;20476;-65
2021/12/19 06:55:58;;;;;;;26.92;8.98;;;7.50;99.90;;;;;;4992776;28;20038;-65
2021/12/19 06:58:24;;;;;;;26.50;8.60;;;7.50;99.90;;;;;;4992598;28;20543;-65
2021/12/19 07:00:50;;;;;;;15.43;6.65;;;;;;;;;;4992761;28;20091;-64
2021/12/19 07:03:16;;;;;;;20.25;6.60;;;7.50;99.90;;;;;;4993645;28;20096;-64
2021/12/19 07:05:43;;;;;;;17.38;5.68;;;7.60;99.90;;;;;;4993701;28;20042;-64
2021/12/19 07:08:09;;;;;;;19.17;6.13;;;7.70;99.90;;;;;;4993669;28;20488;-64
2021/12/19 07:10:35;;;;;;;20.90;5.07;;;7.50;99.90;;;;;;4993921;28;20050;-64
2021/12/19 07:13:01;;;;;;;17.13;6.28;;;;;;;;;;4990673;28;20050;-65
2021/12/19 07:15:27;;;;;;;13.77;6.00;;;;;;;;;;4988831;28;20046;-65
2021/12/19 07:17:55;;;;;;;22.40;6.22;;;;;;;;;;4990491;28;20411;-65
2021/12/19 07:20:21;;;;;;;21.23;6.45;;;;;;;;;;4985586;28;20381;-65
2021/12/19 07:22:47;;;;;;;18.02;7.28;;;;;;;;;;4987151;28;20124;-65
2021/12/19 07:25:13;;;;;;;13.50;6.53;;;;;;;;;;4986975;28;20042;-64
2021/12/19 07:27:39;;;;;;;18.58;5.68;;;;;;;;;;4985499;28;20080;-64
2021/12/19 07:30:06;;;;;;;16.55;6.70;;;7.60;99.90;;;;;;4986952;28;20073;-65
2021/12/19 07:32:33;;;;;;;17.55;5.75;;;;;;;;;;4986955;28;20143;-65
2021/12/19 07:34:59;;;;;;;24.42;6.28;;;;;;;;;;4985861;28;20056;-64
2021/12/19 07:37:25;;;;;;;12.73;4.88;;;;;;;;;;4986735;28;20042;-65
2021/12/19 07:39:55;;;;;;;14.23;4.10;;;;;;;;;;4986863;28;20415;-65
2021/12/19 07:42:21;;;;;;;14.68;4.32;;;;;;;;;;4985291;28;20058;-65
2021/12/19 07:44:47;;;;;;;20.50;5.63;;;;;;;;;;4982886;28;20065;-64
2021/12/19 07:47:14;;;;;;;20.83;4.82;;;;;;;;;;4983490;28;20050;-65
2021/12/19 07:49:40;;;;;;;16.67;5.00;;;;;;;;;;4988159;28;20082;-65
2021/12/19 07:52:06;;;;;;;13.02;4.75;;;;;;;;;;4972739;28;20580;-65
2021/12/19 07:54:32;;;;;;;19.20;5.82;;;7.60;99.90;;;;;;4990331;28;20049;-64
2021/12/19 07:56:58;;;;;;;18.85;6.32;;;;;;;;;;4990099;28;20117;-65
2021/12/19 07:59:24;;;;;;;18.98;4.90;;;;;;;;;;4989677;28;20092;-65
2021/12/19 08:01:50;;;;;;;17.80;4.55;;;;;;;;;;4989489;28;20480;-64
2021/12/19 08:04:16;;;;;;;15.55;4.90;;;;;;;;;;4987775;28;20459;-65
2021/12/19 08:06:42;;;;;;;16.80;4.53;;;;;;;;;;4988305;28;20069;-65
2021/12/19 08:09:09;;;;;;;22.55;5.07;;;7.50;99.90;;;;;;4989346;28;20156;-64
2021/12/19 08:11:42;;;;;;;10.95;5.00;;;;;;;;;;4989260;28;20125;-65
2021/12/19 08:14:13;;;;;;;16.38;4.55;;;7.50;99.90;;;;;;4984124;28;20057;-66
2021/12/19 08:16:40;;;;;;;14.05;4.28;;;7.40;99.90;;;;;;4988023;28;20492;-66
2021/12/19 08:19:06;;;;;;;15.68;5.00;;;;;;;;;;4987337;28;20496;-66
2021/12/19 08:21:32;;;;;;;17.08;4.40;;;7.50;99.90;;;;;;5000450;28;20393;-65
2021/12/19 08:24:01;;;;;;;14.98;4.10;;;;;;;;;;4988613;28;20049;-66
2021/12/19 08:26:27;;;;;;;20.15;4.45;;;7.60;99.90;;;;;;4987148;28;20046;-66
2021/12/19 08:28:53;;;;;;;15.65;5.03;;;7.60;99.90;;;;;;4987678;28;20046;-66
2021/12/19 08:31:19;;;;;;;13.57;3.97;;;7.60;99.90;;;;;;4988532;28;20117;-66
2021/12/19 08:33:46;;;;;;;13.55;4.78;;;;;;;;;;4988725;28;20048;-66
2021/12/19 08:36:12;;;;;;;15.75;3.53;;;;;;;;;;4986858;28;20081;-66
2021/12/19 08:38:38;;;;;;;13.25;3.78;;;7.60;99.90;;;;;;4985087;28;20042;-66
2021/12/19 08:41:04;;;;;;;11.93;3.85;;;;;;;;;;4975744;28;20069;-66
2021/12/19 08:43:30;;;;;;;12.88;3.25;;;;;;;;;;4968258;28;20516;-66
2021/12/19 08:45:56;;;;;;;11.55;3.08;;;;;;;;;;4970025;28;20051;-66
2021/12/19 08:48:22;;;;;;;11.23;3.95;;;;;;;;;;4976431;28;20100;-66
2021/12/19 08:50:48;;;;;;;12.20;3.25;;;;;;;;;;4987269;28;20054;-66
2021/12/19 08:53:15;;;;;;;9.25;3.42;;;;;;;;;;4989397;28;20120;-66
2021/12/19 08:55:40;;;;;;;11.90;2.63;;;7.50;99.90;;;;;;4993571;28;20037;-66
2021/12/19 08:58:06;;;;;;;9.52;2.78;;;7.50;99.90;;;;;;4993759;28;20034;-66
2021/12/19 09:00:33;;;;;;;9.05;2.65;;;7.50;99.90;;;;;;4979017;28;20038;-66
2021/12/19 09:02:59;;;;;;;6.82;3.10;;;7.70;99.90;;;;;;4995449;28;20101;-66
2021/12/19 09:05:27;;;;;;;9.70;2.97;;;7.20;99.90;;;;;;4993893;28;20034;-66
2021/12/19 09:07:53;;;;;;;11.90;4.05;;;7.60;99.90;;;;;;4994224;28;20034;-66
2021/12/19 09:10:20;;;;;;;14.25;3.00;;;7.60;99.90;;;;;;4994299;28;20034;-66
2021/12/19 09:12:46;;;;;;;19.88;3.00;;;7.50;99.90;;;;;;4994658;28;20049;-66
2021/12/19 09:15:12;;;;;;;11.32;3.65;;;7.60;99.90;;;;;;4996147;28;20499;-66
2021/12/19 09:17:38;;;;;;;11.95;2.83;;;7.60;99.90;;;;;;4994569;28;20161;-66
2021/12/19 09:20:05;;;;;;;14.13;2.97;;;7.60;99.90;;;;;;4980671;28;20038;-66
2021/12/19 09:22:31;;;;;;;15.00;3.42;;;;;;;;;;4995024;28;20562;-66
2021/12/19 09:24:57;;;;;;;13.30;3.22;;;7.60;99.90;;;;;;4995489;28;20121;-66
2021/12/19 09:27:23;;;;;;;15.30;3.90;;;7.80;99.90;;;;;;4992649;28;20045;-68
2021/12/19 09:29:48;;;;;;;8.45;3.47;;;7.60;99.90;;;;;;4990316;28;20047;-67
2021/12/19 09:32:14;;;;;;;9.15;3.58;;;7.70;99.90;;;;;;4993348;28;20464;-67
2021/12/19 09:34:40;;;;;;;11.10;3.40;;;7.60;99.90;;;;;;5005444;28;20053;-66
2021/12/19 09:37:06;;;;;;;16.73;4.43;;;7.70;99.90;;;;;;4994144;28;20045;-66
2021/12/19 09:39:32;;;;;;;18.48;4.32;;;;;;;;;;4993446;28;20396;-67
2021/12/19 09:42:06;;;;;;;10.95;4.10;;;7.70;99.90;;;;;;4993823;28;20054;-65
2021/12/19 09:44:33;;;;;;;14.70;4.38;;;7.70;99.90;;;;;;4992869;28;20054;-65
2021/12/19 09:46:59;;;;;;;14.52;4.45;;;;;;;;;;4993422;28;20104;-65
2021/12/19 09:49:25;;;;;;;12.43;3.65;;;7.80;99.90;;;;;;4992896;28;20042;-65
2021/12/19 09:51:51;;;;;;;9.02;3.28;;;7.80;99.90;;;;;;4994457;28;20057;-65
2021/12/19 09:54:17;;;;;;;10.77;3.28;;;7.90;99.90;;;;;;4993333;28;20038;-65
2021/12/19 09:56:43;;;;;;;8.13;2.80;;;7.90;99.90;;;;;;4994083;28;20129;-65
2021/12/19 09:59:14;;;;;;;9.98;3.40;;;;;;;;;;4993066;28;20070;-65
2021/12/19 10:01:41;;;;;;;15.35;3.75;;;7.90;99.90;;;;;;4991557;28;20484;-65
2021/12/19 10:04:27;;;;;;;12.48;3.75;;;7.90;99.90;;;;;;4990383;28;20496;-65
2021/12/19 10:07:07;;;;;;;9.48;3.10;;;7.90;99.90;;;;;;4989482;28;20038;-65
2021/12/19 10:09:33;;;;;;;13.40;2.90;;;;;;;;;;4989561;28;20122;-65
2021/12/19 10:12:23;;;;;;;13.60;3.28;;;7.90;99.90;;;;;;4992381;28;20073;-66
2021/12/19 10:14:49;;;;;;;9.68;3.08;;;;;;;;;;4974545;28;20050;-67
2021/12/19 10:17:19;;;;;;;13.90;3.72;;;;;;;;;;4992189;28;20050;-67
2021/12/19 10:19:54;;;;;;;13.90;3.20;;;8.00;99.90;;;;;;4989707;28;20528;-67
2021/12/19 10:22:23;;;;;;;14.20;3.15;;;8.00;99.90;;;;;;4993637;28;20089;-67
2021/12/19 10:24:48;;;;;;;7.97;2.78;;;8.00;99.90;;;;;;4990228;28;20116;-66
2021/12/19 10:28:09;;;;;;;8.07;2.50;;;7.80;99.90;;;;;;4993582;28;20038;-66
2021/12/19 10:30:38;;;;;;;7.47;3.33;;;7.80;99.90;;;;;;4985438;28;20087;-66
2021/12/19 10:33:12;;;;;;;11.15;2.33;;;;;;;;;;4992782;28;20116;-67
2021/12/19 10:35:47;;;;;;;12.82;3.30;;;8.10;99.90;;;;;;4991486;28;20423;-67
2021/12/19 10:38:29;;;;;;;13.20;3.10;;;8.00;99.90;;;;;;4993055;28;20044;-67
2021/12/19 10:41:08;;;;;;;10.40;4.22;;;8.20;99.90;;;;;;4992985;28;20042;-65
2021/12/19 10:43:42;;;;;;;15.30;2.78;;;8.00;99.90;;;;;;4990031;28;20064;-65
2021/12/19 10:46:07;;;;;;;12.38;3.03;;;8.00;99.90;;;;;;4990366;28;20056;-64
2021/12/19 10:48:38;;;;;;;15.02;2.80;;;8.00;99.90;;;;;;4991179;28;20038;-63
2021/12/19 10:51:04;;;;;;;12.93;3.38;;;;;;;;;;4986569;28;20046;-65
2021/12/19 10:53:52;;;;;;;11.13;3.60;;;;;;;;;;4986761;28;20043;-66
2021/12/19 10:56:21;;;;;;;13.85;4.05;;;8.00;99.90;;;;;;4987209;28;20042;-63
2021/12/19 10:58:55;;;;;;;11.05;3.38;;;8.00;99.90;;;;;;4988570;28;20069;-64
2021/12/19 11:01:44;;;;;;;8.18;2.97;;;8.10;99.90;;;;;;4987045;28;20051;-65
2021/12/19 11:04:15;;;;;;;15.50;4.25;;;8.20;99.90;;;;;;4984416;28;20065;-65
2021/12/19 11:06:51;;;;;;;16.33;3.13;;;8.10;99.90;;;;;;4977440;28;20050;-64
2021/12/19 11:09:26;;;;;;;13.50;4.45;;;8.10;99.90;;;;;;4986827;28;20046;-63
2021/12/19 11:12:05;;;;;;;8.35;3.35;;;8.30;99.90;;;;;;4987797;28;20193;-64
2021/12/19 11:14:40;;;;;;;13.35;3.33;;;8.20;99.90;;;;;;4988232;28;20523;-63
2021/12/19 11:17:12;;;;;;;15.90;3.58;;;8.20;99.90;;;;;;4989250;28;20034;-64
2021/12/19 11:19:39;;;;;;;11.85;3.45;;;8.20;99.90;;;;;;4990053;28;20447;-63
2021/12/19 11:22:05;;;;;;;19.88;3.65;;;8.20;99.90;;;;;;4994506;28;20456;-63
2021/12/19 11:24:32;;;;;;;13.85;3.63;;;8.20;99.90;;;;;;5008940;28;20117;-63
2021/12/19 11:27:01;;;;;;;14.68;4.13;;;8.20;99.90;;;;;;5009775;28;20046;-64
2021/12/19 11:29:28;;;;;;;14.70;3.50;;;;;;;;;;5010084;28;20057;-63
2021/12/19 11:31:58;;;;;;;12.65;3.10;;;8.20;99.90;;;;;;5005763;28;20066;-64
2021/12/19 11:34:57;;;;;;;12.95;4.10;;;8.10;99.90;;;;;;4973135;28;20128;-64
2021/12/19 11:37:29;;;;;;;10.35;3.45;;;8.30;99.90;;;;;;4988508;28;20050;-63
2021/12/19 11:39:56;;;;;;;12.65;3.45;;;8.30;99.90;;;;;;4989045;28;20393;-63
2021/12/19 11:42:28;;;;;;;9.70;2.85;;;8.20;99.90;;;;;;4988845;28;20121;-64
2021/12/19 11:45:13;;;;;;;14.15;3.17;;;;;;;;;;4988868;28;20404;-64
2021/12/19 11:47:46;;;;;;;11.95;2.67;;;;;;;;;;4990565;28;20042;-63
2021/12/19 11:50:31;;;;;;;15.68;3.55;;;8.20;99.90;;;;;;4989012;28;20053;-63
2021/12/19 11:53:18;;;;;;;14.20;3.35;;;8.30;99.90;;;;;;4989862;28;20133;-63
2021/12/19 11:55:46;;;;;;;12.45;3.50;;;8.40;99.90;;;;;;4989069;28;20424;-63
2021/12/19 11:58:12;;;;;;;13.20;3.03;;;;;;;;;;4989868;28;20073;-63
2021/12/19 12:01:00;;;;;;;10.50;2.80;;;8.50;99.90;;;;;;4990000;28;20504;-62
2021/12/19 12:03:52;;;;;;;12.65;2.92;;;8.10;99.90;;;;;;4988609;28;20046;-63
2021/12/19 12:06:19;;;;;;;16.23;2.65;;;;;;;;;;4988411;28;20050;-63
2021/12/19 12:09:06;;;;;;;14.52;3.65;;;;;;;;;;4989893;28;20082;-63
2021/12/19 12:11:34;;;;;;;11.05;3.13;;;8.40;99.90;;;;;;4988309;28;20082;-63
2021/12/19 12:14:19;;;;;;;18.15;2.78;;;8.50;99.90;;;;;;4989551;28;20049;-63
2021/12/19 12:16:53;;;;;;;14.70;3.58;;;;;;;;;;4989732;28;20050;-63
2021/12/19 12:19:37;;;;;;;12.55;3.65;;;8.30;99.90;;;;;;4989575;28;20112;-63
2021/12/19 12:22:27;;;;;;;16.58;3.75;;;8.40;99.90;;;;;;4993229;28;20077;-63
2021/12/19 12:25:05;;;;;;;12.27;3.38;;;8.30;99.90;;;;;;5008456;28;20049;-63
2021/12/19 12:27:53;;;;;;;12.23;2.47;;;8.20;99.90;;;;;;5005942;28;20042;-63
2021/12/19 12:30:38;;;;;;;12.27;2.53;;;8.40;99.90;;;;;;5005442;28;20042;-63
2021/12/19 12:33:06;;;;;;;10.85;2.97;;;8.40;99.90;;;;;;5006033;28;20121;-63
2021/12/19 12:35:34;;;;;;;12.95;2.22;;;;;;;;;;5004653;28;20407;-64
2021/12/19 12:38:00;;;;;;;8.90;3.17;;;;;;;;;;5005974;28;20061;-64
2021/12/19 12:40:43;;;;;;;12.40;2.50;;;8.40;99.90;;;;;;4990954;28;20046;-64
2021/12/19 12:43:29;;;;;;;10.57;1.92;;;8.40;99.90;;;;;;4986050;28;20077;-64
2021/12/19 12:46:08;;;;;;;9.38;2.53;;;8.30;99.90;;;;;;4984558;28;20054;-63
2021/12/19 12:48:41;;;;;;;10.13;2.17;;;8.30;99.90;;;;;;4986277;28;20049;-63
2021/12/19 12:51:29;;;;;;;9.10;2.33;;;8.50;99.90;;;;;;4986109;28;20038;-64
2021/12/19 12:53:58;;;;;;;7.05;2.00;;;8.40;99.90;;;;;;4984565;28;20488;-63
2021/12/19 12:56:32;;;;;;;8.45;2.35;;;8.40;99.90;;;;;;4985880;28;20046;-64
2021/12/19 12:58:58;;;;;;;17.23;2.65;;;8.40;99.90;;;;;;4983150;28;20042;-66
2021/12/19 13:01:28;;;;;;;14.30;2.35;;;8.40;99.90;;;;;;4986839;28;20373;-66
2021/12/19 13:04:13;;;;;;;12.13;2.65;;;8.40;99.90;;;;;;4988134;28;20047;-65
2021/12/19 13:06:43;;;;;;;14.90;2.92;;;8.40;99.90;;;;;;4988264;28;20504;-65
2021/12/19 13:09:09;;;;;;;14.95;2.60;;;;;;;;;;4988136;28;20062;-65
2021/12/19 13:11:36;;;;;;;14.40;3.42;;;8.30;99.90;;;;;;4971526;28;20491;-65
2021/12/19 13:14:21;;;;;;;13.07;3.05;;;8.30;99.90;;;;;;4989331;28;20050;-65
2021/12/19 13:17:06;;;;;;;9.13;2.60;;;8.40;99.90;;;;;;4987011;28;20081;-65
2021/12/19 13:19:32;;;;;;;14.37;3.00;;;;;;;;;;4988339;28;20038;-65
2021/12/19 13:21:58;;;;;;;13.40;3.45;;;8.40;99.90;;;;;;4993608;28;20459;-66
2021/12/19 13:24:24;;;;;;;12.63;2.88;;;8.30;99.90;;;;;;5007522;28;20046;-65
2021/12/19 13:27:17;;;;;;;13.93;3.22;;;8.40;99.90;;;;;;5003089;28;20038;-65
2021/12/19 13:29:59;;;;;;;17.58;2.83;;;8.40;99.90;;;;;;4988197;28;20046;-66
2021/12/19 13:32:32;;;;;;;11.80;3.08;;;8.30;99.90;;;;;;4987773;28;20054;-66
2021/12/19 13:34:59;;;;;;;13.85;3.72;;;8.40;99.90;;;;;;4989099;28;20043;-66
2021/12/19 13:37:25;;;;;;;16.67;3.17;;;;;;;;;;4988899;28;20078;-66
2021/12/19 13:39:59;;;;;;;18.20;3.13;;;8.50;99.90;;;;;;4989824;28;20038;-66
2021/12/19 13:42:37;;;;;;;23.05;4.35;;;8.50;99.90;;;;;;4992559;28;20054;-66
2021/12/19 13:45:25;;;;;;;20.35;3.70;;;8.40;99.90;;;;;;4972872;28;20063;-66
2021/12/19 13:47:52;;;;;;;21.55;4.28;;;8.40;99.90;;;;;;4971539;28;20039;-66
2021/12/19 13:50:18;;;;;;;15.43;3.35;;;8.40;99.90;;;;;;4974064;28;20051;-65
2021/12/19 13:52:44;;;;;;;15.18;3.50;;;;;;;;;;4991191;28;20053;-67
2021/12/19 13:55:11;;;;;;;12.43;3.42;;;8.30;99.90;;;;;;4991449;28;20391;-64
2021/12/19 13:57:37;;;;;;;22.58;3.58;;;;;;;;;;4992033;28;20480;-64
2021/12/19 14:00:06;;;;;;;18.40;3.90;;;8.40;99.90;;;;;;4991917;28;20056;-67
2021/12/19 14:02:36;;;;;;;23.60;3.50;;;8.40;99.90;;;;;;4992127;28;20046;-68
2021/12/19 14:05:02;;;;;;;17.65;4.05;;;;;;;;;;4987481;28;20408;-64
2021/12/19 14:07:31;;;;;;;20.65;3.78;;;;;;;;;;4991651;28;20339;-63
2021/12/19 14:10:02;;;;;;;18.98;3.15;;;8.40;99.90;;;;;;4990581;28;20038;-64
2021/12/19 14:12:51;;;;;;;18.65;3.40;;;;;;;;;;4991739;28;20104;-64
2021/12/19 14:15:17;;;;;;;17.17;3.72;;;8.30;99.90;;;;;;4990645;28;20483;-67
2021/12/19 14:17:43;;;;;;;15.25;3.33;;;;;;;;;;4990862;28;20180;-66
2021/12/19 14:20:09;;;;;;;22.77;3.45;;;;;;;;;;4991297;28;20125;-65
2021/12/19 14:22:35;;;;;;;19.52;4.32;;;;;;;;;;4991601;28;20435;-65